Terminal Aerodrome Forecast
Issued by NWS Lubbock, TX

Home | Current Version | Previous Version | Text Only | Print | Product List | Glossary On
Versions: 1 2 3 4 5 6 7 8 9 10 11 12
709
FTUS44 KLUB 251120
TAFLBB
TAF
KLBB 251120Z 2512/2612 25014KT P6SM SCT250
     FM251800 25025G35KT 6SM BLDU BKN250
     FM260900 33018KT P6SM SCT130=

USA.gov is the U.S. government's official web portal to all federal, state and local government web resources and services.